Time;durP1;ratioP1;P1;durP2;ratioP2;P2;SDS_P1;SDS_P2;PMS_P1;PMS_P2;Temp;Humidity;BMP_temperature;BMP_pressure;BME280_temperature;BME280_humidity;BME280_pressure;Samples;Min_cycle;Max_cycle;Signal;HPM_P1;HPM_P2
2022/03/19 00:00:45;;;;;;;53.58;22.83;;;;;;;-148.23;100.00;61223.13;4975185;28;20141;-70
2022/03/19 00:03:12;;;;;;;53.58;24.45;;;;;;;-148.23;100.00;61223.13;4973597;28;20114;-70
2022/03/19 00:05:37;;;;;;;58.67;26.58;;;;;;;-148.23;100.00;61223.13;4976032;28;20484;-69
2022/03/19 00:08:03;;;;;;;70.70;24.40;;;;;;;-148.23;100.00;61223.13;4978667;28;20032;-69
2022/03/19 00:10:28;;;;;;;59.38;23.40;;;;;;;-148.23;100.00;61223.13;4971828;28;20073;-69
2022/03/19 00:12:54;;;;;;;72.82;24.75;;;;;;;-148.23;100.00;61223.13;4974497;28;20129;-70
2022/03/19 00:15:20;;;;;;;64.63;22.95;;;;;;;-148.23;100.00;61223.13;4956473;28;20030;-69
2022/03/19 00:17:45;;;;;;;73.88;23.88;;;;;;;-148.23;100.00;61223.13;4971968;28;20033;-70
2022/03/19 00:20:11;;;;;;;59.70;22.75;;;;;;;-148.23;100.00;61223.13;4974554;28;20346;-70
2022/03/19 00:22:37;;;;;;;56.85;22.67;;;;;;;-148.23;100.00;61223.13;4975200;28;20030;-70
2022/03/19 00:25:03;;;;;;;62.80;22.77;;;;;;;-148.23;100.00;61223.13;4979645;28;20045;-70
2022/03/19 00:27:28;;;;;;;64.95;23.55;;;;;;;-148.23;100.00;61223.13;4978177;28;20018;-69
2022/03/19 00:29:53;;;;;;;59.95;21.50;;;;;;;-148.23;100.00;61223.13;4979746;28;20508;-69
2022/03/19 00:32:19;;;;;;;53.28;22.50;;;;;;;-148.23;100.00;61223.13;4978074;28;20030;-69
2022/03/19 00:34:44;;;;;;;65.85;21.48;;;;;;;-148.23;100.00;61223.13;4987181;28;20466;-70
2022/03/19 00:37:10;;;;;;;64.10;22.27;;;;;;;-148.23;100.00;61223.13;4955647;28;20586;-70
2022/03/19 00:39:35;;;;;;;62.10;23.50;;;;;;;-148.23;100.00;61223.13;4960997;28;20030;-70
2022/03/19 00:42:00;;;;;;;62.05;21.60;;;;;;;-148.23;100.00;61223.13;4980624;28;20478;-70
2022/03/19 00:44:26;;;;;;;60.20;21.17;;;;;;;-148.23;100.00;61223.13;4981643;28;20034;-69
2022/03/19 00:46:51;;;;;;;70.93;25.15;;;;;;;-148.23;100.00;61223.13;4975425;28;20092;-69
2022/03/19 00:49:16;;;;;;;67.47;21.50;;;;;;;-148.23;100.00;61223.13;4961661;28;20179;-70
2022/03/19 00:51:42;;;;;;;62.63;22.33;;;;;;;-148.23;100.00;61223.13;4978320;28;20042;-69
2022/03/19 00:54:09;;;;;;;64.63;23.20;;;;;;;-148.23;100.00;61223.13;4976250;28;20031;-69
2022/03/19 00:56:34;;;;;;;57.22;22.65;;;;;;;-148.23;100.00;61223.13;4978907;28;20038;-69
2022/03/19 00:59:00;;;;;;;75.65;22.95;;;;;;;-148.23;100.00;61223.13;4978976;28;20035;-69
2022/03/19 01:01:26;;;;;;;71.50;23.08;;;;;;;-148.23;100.00;61223.13;4985717;28;20567;-69
2022/03/19 01:03:51;;;;;;;65.20;22.90;;;;;;;-148.23;100.00;61223.13;4984675;28;20027;-69
2022/03/19 01:06:16;;;;;;;67.82;21.83;;;;;;;-148.23;100.00;61223.13;4982949;28;20031;-69
2022/03/19 01:08:42;;;;;;;60.50;21.70;;;;;;;-148.23;100.00;61223.13;4982984;28;20038;-69
2022/03/19 01:11:07;;;;;;;63.20;20.25;;;;;;;-148.23;100.00;61223.13;4982331;28;20415;-69
2022/03/19 01:13:32;;;;;;;68.22;22.33;;;;;;;-148.23;100.00;61223.13;4982050;28;20032;-69
2022/03/19 01:15:58;;;;;;;64.07;24.17;;;;;;;-148.23;100.00;61223.13;4977029;28;20241;-69
2022/03/19 01:18:24;;;;;;;64.03;21.38;;;;;;;-148.23;100.00;61223.13;4974657;28;20046;-69
2022/03/19 01:20:49;;;;;;;72.28;20.38;;;;;;;-148.23;100.00;61223.13;4984293;28;20061;-69
2022/03/19 01:23:14;;;;;;;54.92;19.98;;;;;;;-148.23;100.00;61223.13;4976732;28;20117;-69
2022/03/19 01:25:40;;;;;;;79.78;23.63;;;;;;;-148.23;100.00;61223.13;4981986;28;20026;-70
2022/03/19 01:28:05;;;;;;;56.08;21.75;;;;;;;-148.23;100.00;61223.13;4981108;28;20026;-70
2022/03/19 01:30:31;;;;;;;65.20;20.38;;;;;;;-148.23;100.00;61223.13;4987062;28;20042;-70
2022/03/19 01:32:56;;;;;;;75.97;20.30;;;;;;;-148.23;100.00;61223.13;4986367;28;20220;-71
2022/03/19 01:35:21;;;;;;;70.80;24.70;;;;;;;-148.23;100.00;61223.13;4976909;28;20034;-70
2022/03/19 01:37:47;;;;;;;65.97;21.50;;;;;;;-148.23;100.00;61223.13;4976431;28;20390;-70
2022/03/19 01:40:14;;;;;;;57.00;20.00;;;;;;;-148.23;100.00;61223.13;4974494;28;20365;-70
2022/03/19 01:42:45;;;;;;;62.30;20.70;;;;;;;-148.23;100.00;61223.13;4976354;28;20034;-70
2022/03/19 01:45:17;;;;;;;62.33;19.90;;;;;;;-148.23;100.00;61223.13;4979593;28;20026;-70
2022/03/19 01:47:42;;;;;;;54.95;19.48;;;;;;;-148.23;100.00;61223.13;4978084;28;20421;-70
2022/03/19 01:50:09;;;;;;;68.07;21.92;;;;;;;-148.23;100.00;61223.13;4978396;28;20038;-69
2022/03/19 01:52:34;;;;;;;62.63;22.20;;;;;;;-148.23;100.00;61223.13;4977568;28;20034;-69
2022/03/19 01:55:00;;;;;;;53.53;18.23;;;;;;;-148.23;100.00;61223.13;4975105;28;20039;-70
2022/03/19 01:57:28;;;;;;;68.18;20.35;;;;;;;-148.23;100.00;61223.13;4979435;28;20091;-70
2022/03/19 01:59:54;;;;;;;64.63;21.25;;;;;;;-148.23;100.00;61223.13;4975131;28;20428;-70
2022/03/19 02:02:21;;;;;;;47.92;17.42;;;;;;;-148.23;100.00;61223.13;4972847;28;20153;-70
2022/03/19 02:04:47;;;;;;;57.83;18.83;;;;;;;-148.23;100.00;61223.13;4975299;28;20133;-70
2022/03/19 02:07:12;;;;;;;62.05;19.02;;;;;;;-148.23;100.00;61223.13;4977310;28;20475;-70
2022/03/19 02:09:39;;;;;;;62.35;20.27;;;;;;;-148.23;100.00;61223.13;4980183;28;20039;-70
2022/03/19 02:12:05;;;;;;;61.15;20.92;;;;;;;-148.23;100.00;61223.13;4979493;28;20480;-70
2022/03/19 02:14:35;;;;;;;58.53;18.42;;;;;;;-148.23;100.00;61223.13;4979567;28;20109;-70
2022/03/19 02:17:05;;;;;;;64.72;20.45;;;;;;;-148.23;100.00;61223.13;4982075;28;20840;-70
2022/03/19 02:19:30;;;;;;;58.88;18.63;;;;;;;-148.23;100.00;61223.13;4982545;28;20037;-70
2022/03/19 02:21:56;;;;;;;54.58;18.25;;;;;;;-148.23;100.00;61223.13;4980895;28;21213;-70
2022/03/19 02:27:06;;;;;;;52.63;17.25;;;;;;;-148.23;100.00;61223.13;4977784;28;20580;-70
2022/03/19 02:29:31;;;;;;;57.63;18.33;;;;;;;-148.23;100.00;61223.13;4971071;28;20043;-70
2022/03/19 02:31:58;;;;;;;57.30;19.73;;;;;;;-148.23;100.00;61223.13;4959128;28;20041;-70
2022/03/19 02:34:24;;;;;;;73.40;19.88;;;;;;;-148.23;100.00;61223.13;4974309;28;20041;-69
2022/03/19 02:36:49;;;;;;;48.50;18.20;;;;;;;-148.23;100.00;61223.13;4975698;28;20034;-70
2022/03/19 02:39:19;;;;;;;55.72;18.33;;;;;;;-148.23;100.00;61223.13;4980209;28;20116;-70
2022/03/19 02:41:49;;;;;;;49.38;18.80;;;;;;;-148.23;100.00;61223.13;4974886;28;20037;-70
2022/03/19 02:44:16;;;;;;;58.03;16.50;;;;;;;-148.23;100.00;61223.13;4976342;28;20057;-70
2022/03/19 02:46:49;;;;;;;56.35;17.73;;;;;;;-148.23;100.00;61223.13;4977570;28;20220;-70
2022/03/19 02:49:16;;;;;;;57.13;18.27;;;;;;;-148.23;100.00;61223.13;4974440;28;20439;-70
2022/03/19 02:51:46;;;;;;;58.30;17.30;;;;;;;-148.23;100.00;61223.13;4968940;28;20042;-70
2022/03/19 02:54:16;;;;;;;52.78;19.27;;;;;;;-148.23;100.00;61223.13;4973002;28;20034;-70
2022/03/19 02:56:42;;;;;;;52.33;18.13;;;;;;;-148.23;100.00;61223.13;4976711;28;20073;-70
2022/03/19 02:59:20;;;;;;;56.40;16.80;;;;;;;-148.23;100.00;61223.13;4975936;28;20165;-70
2022/03/19 03:01:51;;;;;;;53.33;17.02;;;;;;;-148.23;100.00;61223.13;4959323;28;20073;-70
2022/03/19 03:04:18;;;;;;;61.38;19.92;;;;;;;-148.23;100.00;61223.13;4959172;28;20057;-69
2022/03/19 03:06:45;;;;;;;41.92;16.50;;;;;;;-148.23;100.00;61223.13;4955202;28;20153;-70
2022/03/19 03:09:11;;;;;;;62.55;17.35;;;;;;;-148.23;100.00;61223.13;4960314;28;20536;-70
2022/03/19 03:11:37;;;;;;;46.50;16.33;;;;;;;-148.23;100.00;61223.13;4974068;28;20038;-70
2022/03/19 03:14:04;;;;;;;59.90;17.02;;;;;;;-148.23;100.00;61223.13;4959190;28;20116;-70
2022/03/19 03:16:30;;;;;;;56.95;17.60;;;;;;;-148.23;100.00;61223.13;4955204;28;20507;-70
2022/03/19 03:18:57;;;;;;;43.78;15.82;;;;;;;-148.23;100.00;61223.13;4977751;28;20038;-70
2022/03/19 03:21:23;;;;;;;61.25;17.35;;;;;;;-148.23;100.00;61223.13;4951107;28;20049;-70
2022/03/19 03:23:49;;;;;;;45.45;15.85;;;;;;;-148.23;100.00;61223.13;4972095;28;20031;-70
2022/03/19 03:26:14;;;;;;;32.92;14.80;;;;;;;-148.23;100.00;61223.13;4971617;28;20084;-70
2022/03/19 03:28:40;;;;;;;45.92;16.23;;;;;;;-148.23;100.00;61223.13;4976057;28;20157;-70
2022/03/19 03:31:05;;;;;;;56.58;16.65;;;;;;;-148.23;100.00;61223.13;4969601;28;20133;-70
2022/03/19 03:33:30;;;;;;;46.33;16.08;;;;;;;-148.23;100.00;61223.13;4969470;28;20041;-70
2022/03/19 03:35:56;;;;;;;46.83;16.00;;;;;;;-148.23;100.00;61223.13;4954000;28;20141;-70
2022/03/19 03:38:21;;;;;;;33.92;15.70;;;;;;;-148.23;100.00;61223.13;4974236;28;20050;-70
2022/03/19 03:40:47;;;;;;;56.05;16.05;;;;;;;-148.23;100.00;61223.13;4960669;28;20034;-70
2022/03/19 03:43:12;;;;;;;51.08;17.90;;;;;;;-148.23;100.00;61223.13;4970196;28;20028;-70
2022/03/19 03:45:37;;;;;;;58.15;18.70;;;;;;;-148.23;100.00;61223.13;4972582;28;20117;-70
2022/03/19 03:48:03;;;;;;;49.55;17.05;;;;;;;-148.23;100.00;61223.13;4956798;28;20101;-70
2022/03/19 03:50:28;;;;;;;61.10;18.17;;;;;;;-148.23;100.00;61223.13;4969701;28;20317;-70
2022/03/19 03:52:55;;;;;;;32.05;15.38;;;;;;;-148.23;100.00;61223.13;4970659;28;20039;-70
2022/03/19 03:55:21;;;;;;;59.63;16.33;;;;;;;-148.23;100.00;61223.13;4970171;28;20777;-70
2022/03/19 03:57:46;;;;;;;50.47;15.73;;;;;;;-148.23;100.00;61223.13;4971537;28;20125;-70
2022/03/19 04:00:12;;;;;;;47.05;15.63;;;;;;;-148.23;100.00;61223.13;4955268;28;20104;-70
2022/03/19 04:02:38;;;;;;;35.53;14.93;;;;;;;-148.23;100.00;61223.13;4964530;28;20038;-70
2022/03/19 04:05:07;;;;;;;54.47;16.67;;;;;;;-148.23;100.00;61223.13;4978682;28;20061;-70
2022/03/19 04:07:33;;;;;;;44.38;15.70;;;;;;;-148.23;100.00;61223.13;4973553;28;20450;-70
2022/03/19 04:09:58;;;;;;;48.00;16.83;;;;;;;-148.23;100.00;61223.13;4971326;28;20041;-70
2022/03/19 04:12:24;;;;;;;45.38;16.23;;;;;;;-148.23;100.00;61223.13;4976825;28;20022;-70
2022/03/19 04:14:49;;;;;;;41.22;15.70;;;;;;;-148.23;100.00;61223.13;4978011;28;20018;-70
2022/03/19 04:17:15;;;;;;;45.15;16.15;;;;;;;-148.23;100.00;61223.13;4977982;28;20342;-70
2022/03/19 04:19:40;;;;;;;55.20;16.20;;;;;;;-148.23;100.00;61223.13;4974877;28;20319;-70
2022/03/19 04:22:06;;;;;;;44.13;16.30;;;;;;;-148.23;100.00;61223.13;4970992;28;20115;-70
2022/03/19 04:24:31;;;;;;;42.78;16.13;;;;;;;-148.23;100.00;61223.13;4979532;28;20026;-70
2022/03/19 04:26:57;;;;;;;52.47;17.63;;;;;;;-148.23;100.00;61223.13;4982123;28;20030;-70
2022/03/19 04:29:23;;;;;;;40.03;15.57;;;;;;;-148.23;100.00;61223.13;4979618;28;20124;-70
2022/03/19 04:31:48;;;;;;;46.70;16.13;;;;;;;-148.23;100.00;61223.13;4978248;28;20026;-70
2022/03/19 04:34:13;;;;;;;45.25;16.75;;;;;;;-148.23;100.00;61223.13;4977725;28;20113;-70
2022/03/19 04:36:39;;;;;;;50.38;15.95;;;;;;;-148.23;100.00;61223.13;4977876;28;20037;-70
2022/03/19 04:39:06;;;;;;;41.97;14.52;;;;;;;-148.23;100.00;61223.13;4975220;28;20165;-70
2022/03/19 04:41:32;;;;;;;42.72;16.35;;;;;;;-148.23;100.00;61223.13;4971512;28;20056;-70
2022/03/19 04:43:58;;;;;;;40.28;16.15;;;;;;;-148.23;100.00;61223.13;4977336;28;20026;-70
2022/03/19 04:46:23;;;;;;;35.58;14.63;;;;;;;-148.23;100.00;61223.13;4977397;28;20030;-70
2022/03/19 04:48:49;;;;;;;41.80;16.92;;;;;;;-148.23;100.00;61223.13;4975553;28;20043;-70
2022/03/19 04:51:19;;;;;;;42.72;15.80;;;;;;;-148.23;100.00;61223.13;4973859;28;20130;-70
2022/03/19 04:53:50;;;;;;;39.35;15.50;;;;;;;-148.23;100.00;61223.13;4981989;28;20341;-70
2022/03/19 04:56:23;;;;;;;43.35;14.82;;;;;;;-148.23;100.00;61223.13;4999949;23;20057;-69
2022/03/19 04:58:50;;;;;;;45.78;16.02;;;;;;;-148.23;100.00;61223.13;4981113;28;20054;-70
2022/03/19 05:01:16;;;;;;;59.13;15.98;;;;;;;-148.23;100.00;61223.13;4983623;28;20030;-70
2022/03/19 05:03:41;;;;;;;44.03;15.00;;;;;;;-148.23;100.00;61223.13;4980738;28;20064;-70
2022/03/19 05:06:07;;;;;;;45.92;15.73;;;;;;;-148.23;100.00;61223.13;4959965;28;20072;-70
2022/03/19 05:08:32;;;;;;;51.15;15.90;;;;;;;-148.23;100.00;61223.13;4977714;28;20413;-70
2022/03/19 05:11:12;;;;;;;45.03;15.52;;;;;;;-148.23;100.00;61223.13;4983285;28;20030;-70
2022/03/19 05:13:38;;;;;;;42.55;15.05;;;;;;;-148.23;100.00;61223.13;4981621;28;20037;-70
2022/03/19 05:16:04;;;;;;;55.92;15.80;;;;;;;-148.23;100.00;61223.13;4979052;28;20038;-70
2022/03/19 05:18:29;;;;;;;47.22;16.33;;;;;;;-148.23;100.00;61223.13;4982068;28;20069;-70
2022/03/19 05:20:56;;;;;;;43.25;16.17;;;;;;;-148.23;100.00;61223.13;4979314;28;20041;-70
2022/03/19 05:23:22;;;;;;;35.35;15.18;;;;;;;-148.23;100.00;61223.13;4978056;28;20520;-70
2022/03/19 05:25:47;;;;;;;45.70;16.17;;;;;;;-148.23;100.00;61223.13;4986050;28;20038;-70
2022/03/19 05:28:13;;;;;;;44.70;15.00;;;;;;;-148.23;100.00;61223.13;4980086;28;20108;-70
2022/03/19 05:30:38;;;;;;;46.17;15.07;;;;;;;-148.23;100.00;61223.13;4979867;28;20042;-70
2022/03/19 05:33:04;;;;;;;35.08;15.27;;;;;;;-148.23;100.00;61223.13;4980860;28;20146;-70
2022/03/19 05:35:30;;;;;;;36.28;14.85;;;;;;;-148.23;100.00;61223.13;4979805;28;20106;-70
2022/03/19 05:37:55;;;;;;;36.72;13.82;;;;;;;-148.23;100.00;61223.13;4982865;28;20037;-70
2022/03/19 05:40:20;;;;;;;40.13;14.52;;;;;;;-148.23;100.00;61223.13;4982310;28;20037;-70
2022/03/19 05:42:46;;;;;;;42.05;16.02;;;;;;;-148.23;100.00;61223.13;4976977;28;20120;-70
2022/03/19 05:45:13;;;;;;;46.88;14.88;;;;;;;-148.23;100.00;61223.13;4980008;28;20434;-70
2022/03/19 05:47:38;;;;;;;42.05;15.35;;;;;;;-148.23;100.00;61223.13;4982258;28;20105;-70
2022/03/19 05:50:05;;;;;;;42.85;14.57;;;;;;;-148.23;100.00;61223.13;4980798;28;20143;-70
2022/03/19 05:52:30;;;;;;;40.38;15.00;;;;;;;-148.23;100.00;61223.13;4981116;28;20078;-70
2022/03/19 05:54:55;;;;;;;45.60;14.98;;;;;;;-148.23;100.00;61223.13;4980533;28;20026;-70
2022/03/19 05:57:21;;;;;;;41.88;16.10;;;;;;;-148.23;100.00;61223.13;4982997;28;20022;-70
2022/03/19 05:59:46;;;;;;;42.15;16.13;;;;;;;-148.23;100.00;61223.13;4980047;28;20037;-70
2022/03/19 06:02:11;;;;;;;48.40;16.58;;;;;;;-148.23;100.00;61223.13;4980892;28;20033;-70
2022/03/19 06:04:38;;;;;;;42.45;15.85;;;;;;;-148.23;100.00;61223.13;4980874;28;20042;-70
2022/03/19 06:07:03;;;;;;;43.75;14.50;;;;;;;-148.23;100.00;61223.13;4980077;28;20061;-70
2022/03/19 06:09:28;;;;;;;39.97;15.82;;;;;;;-148.23;100.00;61223.13;4980198;28;20109;-70
2022/03/19 06:11:54;;;;;;;37.55;13.98;;;;;;;-148.23;100.00;61223.13;4975030;28;20034;-70
2022/03/19 06:14:20;;;;;;;42.58;15.13;;;;;;;-148.23;100.00;61223.13;4980728;28;20109;-70
2022/03/19 06:16:45;;;;;;;46.95;16.10;;;;;;;-148.23;100.00;61223.13;4980490;28;20583;-70
2022/03/19 06:19:11;;;;;;;40.47;15.18;;;;;;;-148.23;100.00;61223.13;4980806;28;20606;-70
2022/03/19 06:21:39;;;;;;;46.67;15.07;;;;;;;-148.23;100.00;61223.13;4978550;28;20038;-70
2022/03/19 06:24:06;;;;;;;42.28;14.02;;;;;;;-148.23;100.00;61223.13;4979629;28;20376;-70
2022/03/19 06:26:31;;;;;;;34.95;14.38;;;;;;;-148.23;100.00;61223.13;4977709;28;20034;-70
2022/03/19 06:28:56;;;;;;;43.00;14.27;;;;;;;-148.23;100.00;61223.13;4981395;28;20532;-70
2022/03/19 06:31:21;;;;;;;34.90;14.50;;;;;;;-148.23;100.00;61223.13;4977858;28;20032;-70
2022/03/19 06:33:47;;;;;;;33.90;13.80;;;;;;;-148.23;100.00;61223.13;4981185;28;20066;-69
2022/03/19 06:38:57;;;;;;;;;;;;;;;-148.23;100.00;61223.13;4961950;28;20048;-70
2022/03/19 06:41:23;;;;;;;36.47;13.75;;;;;;;-148.23;100.00;61223.13;4959922;28;19922;-70
2022/03/19 06:43:48;;;;;;;34.85;13.07;;;;;;;-148.23;100.00;61223.13;4958996;28;20054;-70
2022/03/19 06:46:14;;;;;;;35.38;14.90;;;;;;;-148.23;100.00;61223.13;4959359;28;20502;-70
2022/03/19 06:48:39;;;;;;;34.70;13.80;;;;;;;-148.23;100.00;61223.13;4963235;28;20042;-70
2022/03/19 06:51:05;;;;;;;28.48;11.48;;;;;;;-148.23;100.00;61223.13;4960442;28;20046;-70
2022/03/19 06:53:30;;;;;;;28.58;12.60;;;;;;;-148.23;100.00;61223.13;4974987;28;20023;-69
2022/03/19 06:55:55;;;;;;;36.42;12.75;;;;;;;-148.23;100.00;61223.13;4960890;28;20117;-70
2022/03/19 06:58:21;;;;;;;28.33;10.88;;;;;;;-148.23;100.00;61223.13;4960597;28;20096;-70
2022/03/19 07:00:47;;;;;;;25.60;11.00;;;;;;;-148.23;100.00;61223.13;4974034;28;20042;-70
2022/03/19 07:03:12;;;;;;;25.00;11.45;;;;;;;-148.23;100.00;61223.13;4956551;28;20837;-69
2022/03/19 07:05:38;;;;;;;25.60;10.48;;;;;;;-148.23;100.00;61223.13;4958112;28;20093;-70
2022/03/19 07:08:07;;;;;;;28.80;10.57;;;;;;;-148.23;100.00;61223.13;4963307;28;20394;-70
2022/03/19 07:10:33;;;;;;;20.55;10.45;;;;;;;-148.23;100.00;61223.13;4957279;28;20054;-70
2022/03/19 07:12:58;;;;;;;31.40;10.35;;;;;;;-148.23;100.00;61223.13;4955876;28;20267;-70
2022/03/19 07:15:27;;;;;;;31.95;10.20;;;;;;;-148.23;100.00;61223.13;4955884;28;20022;-70
2022/03/19 07:17:53;;;;;;;22.00;9.18;;;;;;;-148.23;100.00;61223.13;4961773;28;20045;-69
2022/03/19 07:20:19;;;;;;;26.75;10.25;;;;;;;-148.23;100.00;61223.13;4956702;28;20397;-69
2022/03/19 07:22:52;;;;;;;28.20;9.60;;;;;;;-148.23;100.00;61223.13;4969839;28;20023;-69
2022/03/19 07:25:18;;;;;;;24.53;9.73;;;;;;;-148.23;100.00;61223.13;4956590;28;20031;-70
2022/03/19 07:27:44;;;;;;;28.00;9.57;;;;;;;-148.23;100.00;61223.13;4959418;28;20312;-69
2022/03/19 07:30:11;;;;;;;31.33;9.75;;;;;;;-148.23;100.00;61223.13;4972853;28;20038;-71
2022/03/19 07:32:37;;;;;;;29.25;9.45;;;;;;;-148.23;100.00;61223.13;4961096;28;20073;-70
2022/03/19 07:35:02;;;;;;;25.65;10.98;;;;;;;-148.23;100.00;61223.13;4958557;28;20137;-68
2022/03/19 07:37:28;;;;;;;38.88;10.63;;;;;;;-148.23;100.00;61223.13;4958395;28;20485;-69
2022/03/19 07:39:55;;;;;;;20.90;8.85;;;;;;;-148.23;100.00;61223.13;4962329;28;20030;-70
2022/03/19 07:42:20;;;;;;;20.60;9.60;;;;;;;-148.23;100.00;61223.13;4956883;28;20041;-69
2022/03/19 07:44:46;;;;;;;25.52;9.00;;;;;;;-148.23;100.00;61223.13;4961465;28;20027;-69
2022/03/19 07:47:11;;;;;;;30.65;10.60;;;;;;;-148.23;100.00;61223.13;4969199;28;20042;-70
2022/03/19 07:49:36;;;;;;;25.40;8.80;;;;;;;-148.23;100.00;61223.13;4957250;28;20058;-70
2022/03/19 07:52:05;;;;;;;28.77;10.73;;;;;;;-148.23;100.00;61223.13;4957284;28;20035;-71
2022/03/19 07:54:31;;;;;;;26.17;9.57;;;;;;;-148.23;100.00;61223.13;4971263;28;20034;-70
2022/03/19 07:56:57;;;;;;;25.98;10.00;;;;;;;-148.23;100.00;61223.13;4960479;28;20241;-70
2022/03/19 07:59:22;;;;;;;27.73;9.52;;;;;;;-148.23;100.00;61223.13;4960520;28;20125;-70
2022/03/19 08:01:50;;;;;;;27.25;9.68;;;;;;;-148.23;100.00;61223.13;4960942;28;20336;-71
2022/03/19 08:04:16;;;;;;;27.63;10.77;;;;;;;-148.23;100.00;61223.13;4959575;28;20585;-72
2022/03/19 08:06:42;;;;;;;22.80;8.73;;;;;;;-148.23;100.00;61223.13;4971121;28;20039;-72
2022/03/19 08:09:08;;;;;;;29.20;10.25;;;;;;;-148.23;100.00;61223.13;4955179;28;20065;-70
2022/03/19 08:11:34;;;;;;;24.48;9.52;;;;;;;-148.23;100.00;61223.13;4957707;28;20043;-70
2022/03/19 08:14:00;;;;;;;22.63;8.75;;;;;;;-148.23;100.00;61223.13;4958166;28;20026;-70
2022/03/19 08:16:25;;;;;;;28.27;8.70;;;;;;;-148.23;100.00;61223.13;4951989;28;20470;-70
2022/03/19 08:18:51;;;;;;;27.42;9.80;;;;;;;-148.23;100.00;61223.13;4957403;28;20133;-69
2022/03/19 08:21:16;;;;;;;19.70;9.07;;;;;;;-148.23;100.00;61223.13;4954773;28;20035;-69
2022/03/19 08:23:41;;;;;;;26.13;8.90;;;;;;;-148.23;100.00;61223.13;4958224;28;20440;-69
2022/03/19 08:26:07;;;;;;;36.65;9.68;;;;;;;-148.23;100.00;61223.13;4958256;28;20041;-69
2022/03/19 08:28:32;;;;;;;21.92;9.32;;;;;;;-148.23;100.00;61223.13;4960901;28;20306;-71
2022/03/19 08:30:58;;;;;;;26.63;9.45;;;;;;;-148.23;100.00;61223.13;4959166;28;20508;-70
2022/03/19 08:33:24;;;;;;;32.70;9.70;;;;;;;-148.23;100.00;61223.13;4960801;28;20030;-70
2022/03/19 08:35:49;;;;;;;29.33;8.73;;;;;;;-148.23;100.00;61223.13;4970636;28;20035;-69
2022/03/19 08:40:59;;;;;;;39.65;10.90;;;;;;;-148.23;100.00;61223.13;4952534;28;20170;-70
2022/03/19 08:43:24;;;;;;;25.95;9.43;;;;;;;-148.23;100.00;61223.13;4960972;28;20494;-69
2022/03/19 08:45:50;;;;;;;28.50;8.93;;;;;;;-148.23;100.00;61223.13;4957791;28;20096;-70
2022/03/19 08:48:17;;;;;;;27.83;9.02;;;;;;;-148.23;100.00;61223.13;4959990;28;20057;-71
2022/03/19 08:50:43;;;;;;;30.65;9.45;;;;;;;-148.23;100.00;61223.13;4961149;28;20285;-70
2022/03/19 08:53:09;;;;;;;33.72;10.18;;;;;;;-148.23;100.00;61223.13;4955400;28;20046;-70
2022/03/19 08:55:34;;;;;;;24.77;8.57;;;;;;;-148.23;100.00;61223.13;4961976;28;21289;-70
2022/03/19 08:58:00;;;;;;;32.22;9.52;;;;;;;-148.23;100.00;61223.13;4961591;28;20077;-70
2022/03/19 09:00:25;;;;;;;26.30;8.90;;;;;;;-148.23;100.00;61223.13;4957718;28;20096;-70
2022/03/19 09:02:50;;;;;;;27.55;9.15;;;;;;;-148.23;100.00;61223.13;4960857;28;20582;-69
2022/03/19 09:05:20;;;;;;;25.23;9.73;;;;;;;-148.23;100.00;61223.13;4962384;28;20066;-69
2022/03/19 09:07:45;;;;;;;23.95;9.70;;;;;;;-148.23;100.00;61223.13;4957226;28;20071;-70
2022/03/19 09:10:10;;;;;;;26.17;8.27;;;;;;;-148.23;100.00;61223.13;4953352;28;20130;-70
2022/03/19 09:12:37;;;;;;;25.33;9.50;;;;;;;-148.23;100.00;61223.13;4959430;28;20023;-70
2022/03/19 09:15:03;;;;;;;24.33;9.25;;;;;;;-148.23;100.00;61223.13;4959020;28;20113;-70
2022/03/19 09:17:28;;;;;;;29.77;9.55;;;;;;;-148.23;100.00;61223.13;4959131;28;20180;-70
2022/03/19 09:19:53;;;;;;;28.10;9.05;;;;;;;-148.23;100.00;61223.13;4959487;28;20030;-70
2022/03/19 09:22:18;;;;;;;22.65;8.48;;;;;;;-148.23;100.00;61223.13;4962955;28;20034;-70
2022/03/19 09:24:44;;;;;;;17.20;7.85;;;;;;;-148.23;100.00;61223.13;4962285;28;20466;-70
2022/03/19 09:27:10;;;;;;;31.52;8.55;;;;;;;-148.23;100.00;61223.13;4961200;28;20783;-70
2022/03/19 09:29:35;;;;;;;22.15;8.68;;;;;;;-148.23;100.00;61223.13;4955191;28;20046;-70
2022/03/19 09:32:01;;;;;;;28.83;9.23;;;;;;;-148.23;100.00;61223.13;4961358;28;20048;-71
2022/03/19 09:34:26;;;;;;;32.25;9.10;;;;;;;-148.23;100.00;61223.13;4965057;28;20516;-70
2022/03/19 09:36:51;;;;;;;29.08;8.45;;;;;;;-148.23;100.00;61223.13;4959214;28;20031;-69
2022/03/19 09:39:17;;;;;;;23.55;7.65;;;;;;;-148.23;100.00;61223.13;4958066;28;20037;-70
2022/03/19 09:41:42;;;;;;;24.75;7.90;;;;;;;-148.23;100.00;61223.13;4957900;28;20039;-70
2022/03/19 09:44:09;;;;;;;22.15;7.30;;;;;;;-148.23;100.00;61223.13;4961586;28;20461;-71
2022/03/19 09:46:35;;;;;;;24.25;7.40;;;;;;;-148.23;100.00;61223.13;4960527;28;20035;-70
2022/03/19 09:49:00;;;;;;;17.83;6.88;;;;;;;-148.23;100.00;61223.13;4961041;28;20035;-70
2022/03/19 09:51:27;;;;;;;22.38;8.15;;;;;;;-148.23;100.00;61223.13;4960378;28;20126;-70
2022/03/19 09:53:54;;;;;;;22.42;7.45;;;;;;;-148.23;100.00;61223.13;4955921;28;20030;-69
2022/03/19 09:56:20;;;;;;;22.20;5.90;;;;;;;-148.23;100.00;61223.13;4958119;28;20026;-70
2022/03/19 09:58:45;;;;;;;24.38;6.47;;;;;;;-148.23;100.00;61223.13;4954823;28;20363;-69
2022/03/19 10:01:10;;;;;;;31.98;7.95;;;;;;;-148.23;100.00;61223.13;4956610;28;20058;-69
2022/03/19 10:03:39;;;;;;;21.42;6.93;;;;;;;-148.23;100.00;61223.13;4954981;28;20030;-69
2022/03/19 10:08:58;;;;;;;21.15;6.97;;;;;;;-148.23;100.00;61223.13;4958499;28;20554;-70
2022/03/19 10:11:28;;;;;;;16.83;5.70;;;;;;;-148.23;100.00;61223.13;4953605;28;20528;-70
2022/03/19 10:13:53;;;;;;;12.82;4.90;;;;;;;-148.23;100.00;61223.13;4957871;28;20027;-71
2022/03/19 10:16:28;;;;;;;16.52;5.47;;;;;;;-148.23;100.00;61223.13;4954426;28;20378;-70
2022/03/19 10:18:59;;;;;;;16.77;5.68;;;;;;;-148.23;100.00;61223.13;4954140;28;20038;-70
2022/03/19 10:21:25;;;;;;;18.30;5.20;;;;;;;-148.23;100.00;61223.13;4955403;28;20382;-70
2022/03/19 10:23:51;;;;;;;17.85;5.55;;;;;;;-148.23;100.00;61223.13;4949791;28;20459;-68
2022/03/19 10:26:29;;;;;;;16.63;6.45;;;;;;;-148.23;100.00;61223.13;4958006;28;20042;-69
2022/03/19 10:29:02;;;;;;;13.25;5.68;;;;;;;-148.23;100.00;61223.13;4955806;28;20058;-68
2022/03/19 10:31:37;;;;;;;14.75;4.72;;;;;;;-148.23;100.00;61223.13;4960886;28;20151;-68
2022/03/19 10:34:05;;;;;;;15.95;3.97;;;;;;;-148.23;100.00;61223.13;4954571;28;20061;-67
2022/03/19 10:36:38;;;;;;;15.35;4.60;;;;;;;-148.23;100.00;61223.13;4954172;28;20082;-68
2022/03/19 10:39:11;;;;;;;21.70;5.23;;;;;;;-148.23;100.00;61223.13;4954691;28;20099;-66
2022/03/19 10:41:36;;;;;;;15.60;4.72;;;;;;;-148.23;100.00;61223.13;4955853;28;20292;-69
2022/03/19 10:44:19;;;;;;;14.95;4.78;;;;;;;-148.23;100.00;61223.13;4957806;28;20030;-69
2022/03/19 10:46:49;;;;;;;18.77;4.70;;;;;;;-148.23;100.00;61223.13;4958476;28;20043;-68
2022/03/19 10:49:16;;;;;;;9.30;3.78;;;;;;;-148.23;100.00;61223.13;4959570;28;20030;-68
2022/03/19 10:51:50;;;;;;;8.90;3.55;;;;;;;-148.23;100.00;61223.13;4957365;28;20486;-67
2022/03/19 10:54:16;;;;;;;10.52;3.85;;;;;;;-148.23;100.00;61223.13;4962823;28;20445;-67
2022/03/19 10:56:42;;;;;;;16.88;4.22;;;;;;;-148.23;100.00;61223.13;4952199;28;20031;-67
2022/03/19 10:59:07;;;;;;;16.83;4.60;;;;;;;-148.23;100.00;61223.13;4950329;28;20154;-68
2022/03/19 11:01:37;;;;;;;14.05;4.93;;;;;;;-148.23;100.00;61223.13;4954501;28;20236;-68
2022/03/19 11:04:05;;;;;;;14.27;4.43;;;;;;;-148.23;100.00;61223.13;4957119;28;20022;-68